Flight Track Log - Related Links

Times and Time Zones

All times are in EDT time to prevent confusion due to time zone crossing. See the EJA583 flight status page for this flight to view local times or setup timezone preferences in your user account.

Time Position Orientation Groundspeed Altitude Reporting Facility
EDT Latitude Longitude Course Direction KTS MPH feet Rate Location/Type
Fri 02:41:49 PM 32.0025 -102.0506 75° East 298 343 10,800  Level Fort Worth Center
Fri 02:42:49 PM 32.0467 -101.9842 52° Northeast 272 313 13,400 2,269 Climbing Fort Worth Center
Fri 02:43:48 PM 32.0644 -101.8944 77° East 252 290 15,300 1,750 Climbing Fort Worth Center
Fri 02:44:00 PM 32.2239 -101.6660 79° East  Level Estimated
Fri 02:44:49 PM 32.0828 -101.7922 78° East 279 321 16,900  Level Fort Worth Center
Fri 02:45:00 PM 32.2799 -101.5584 74° East  Level Estimated
Fri 02:45:49 PM 32.1069 -101.6906 74° East 301 346 18,500  Level Fort Worth Center
Fri 02:46:00 PM 32.3358 -101.4507 75° East  Level Estimated
Fri 02:46:49 PM 32.1294 -101.5836 76° East 326 375 20,100  Level Fort Worth Center
Fri 02:47:49 PM 32.1539 -101.4719 75° East 338 389 21,800 1,600 Climbing Fort Worth Center
Fri 02:48:49 PM 32.1739 -101.3747 76° East 338 389 23,300 1,600 Climbing Fort Worth Center
Fri 02:49:49 PM 32.1964 -101.2553 77° East 338 389 25,000 1,500 Climbing Fort Worth Center
Fri 02:50:49 PM 32.2225 -101.1458 74° East 338 389 26,300 1,160 Climbing Fort Worth Center
Fri 02:51:48 PM 32.2447 -101.0314 77° East 338 389 27,300 1,000 Climbing Fort Worth Center
Fri 02:52:49 PM 32.2667 -100.9144 77° East 349 402 28,300 1,041 Climbing Fort Worth Center
Fri 02:53:49 PM 32.2908 -100.7950 77° East 361 415 29,400 1,050 Climbing Fort Worth Center
Fri 02:54:49 PM 32.3169 -100.6753 75° East 366 421 30,400 1,000 Climbing Fort Worth Center
Fri 02:55:49 PM 32.3411 -100.5533 77° East 372 428 31,400 1,000 Climbing Fort Worth Center
Fri 02:56:49 PM 32.3647 -100.4336 77° East 372 428 32,400 1,050 Climbing Fort Worth Center
Fri 02:57:49 PM 32.3928 -100.3117 75° East 372 428 33,500 1,150 Climbing Fort Worth Center
Fri 02:58:49 PM 32.4453 -100.2050 60° Northeast 372 428 34,700 1,200 Climbing Fort Worth Center
Fri 02:59:49 PM 32.5019 -100.0983 58° Northeast 372 428 35,900 1,150 Climbing Fort Worth Center
Fri 03:00:49 PM 32.5522 -99.9939 60° Northeast 372 428 37,000 1,109 Climbing Fort Worth Center
Fri 03:01:48 PM 32.6083 -99.8969 55° Northeast 373 429 38,100 1,100 Climbing Fort Worth Center
Fri 03:02:49 PM 32.6647 -99.7922 57° Northeast 384 442 39,200 900 Climbing Fort Worth Center
Fri 03:03:48 PM 32.7169 -99.6778 62° Northeast 378 435 39,900 850 Climbing Fort Worth Center
Fri 03:04:49 PM 32.7708 -99.5753 58° Northeast 371 427 40,900 545 Climbing Fort Worth Center
Fri 03:05:49 PM 32.8269 -99.4678 58° Northeast 371 427 41,000 50 Climbing Fort Worth Center
Fri 03:06:48 PM 32.8850 -99.3553 58° Northeast 381 438 41,000  Level Fort Worth Center
Fri 03:07:49 PM 32.9453 -99.2353 59° Northeast 394 453 41,000  Level Fort Worth Center
Fri 03:08:49 PM 33.0075 -99.1203 57° Northeast 406 467 41,000  Level Fort Worth Center
Fri 03:09:48 PM 33.0675 -98.9975 60° Northeast 412 474 41,000  Level Fort Worth Center
Fri 03:10:48 PM 33.1275 -98.8794 59° Northeast 412 474 41,000  Level Fort Worth Center
Fri 03:11:49 PM 33.1872 -98.7589 59° Northeast 417 480 41,000  Level Fort Worth Center
Fri 03:12:49 PM 33.2572 -98.6506 52° Northeast 417 480 41,000  Level Fort Worth Center
Fri 03:13:49 PM 33.3353 -98.5522 46° Northeast 411 473 41,000  Level Fort Worth Center
Fri 03:14:49 PM 33.4114 -98.4536 47° Northeast 406 467 41,000  Level Fort Worth Center
Fri 03:15:49 PM 33.4853 -98.3475 50° Northeast 401 461 41,000  Level Fort Worth Center
Fri 03:16:49 PM 33.5697 -98.2311 49° Northeast 412 474 41,000  Level Fort Worth Center
Fri 03:17:49 PM 33.6289 -98.1119 59° Northeast 417 480 41,000  Level Fort Worth Center
Fri 03:18:49 PM 33.6858 -97.9925 60° Northeast 417 480 41,000  Level Fort Worth Center
Fri 03:19:49 PM 33.7467 -97.8706 59° Northeast 412 474 41,000  Level Fort Worth Center
Fri 03:20:49 PM 33.8036 -97.7483 61° Northeast 417 480 41,000  Level Fort Worth Center
Fri 03:21:49 PM 33.8622 -97.6261 60° Northeast 417 480 41,000  Level Fort Worth Center
Fri 03:22:49 PM 33.9125 -97.5186 61° Northeast 412 474 41,000  Level Fort Worth Center
Fri 03:23:49 PM 33.9708 -97.3983 60° Northeast 412 474 41,000  Level Fort Worth Center
Fri 03:24:49 PM 34.0272 -97.2756 61° Northeast 412 474 41,000  Level Fort Worth Center
Fri 03:25:49 PM 34.0833 -97.1528 61° Northeast 412 474 41,000  Level Fort Worth Center
Fri 03:26:49 PM 34.1394 -97.0269 62° Northeast 400 460 41,000  Level Fort Worth Center
Fri 03:27:49 PM 34.1911 -96.9164 61° Northeast 407 468 41,000  Level Fort Worth Center
Fri 03:28:49 PM 34.2469 -96.7956 61° Northeast 407 468 41,000  Level Fort Worth Center
Fri 03:29:49 PM 34.3028 -96.6769 60° Northeast 402 463 41,000  Level Fort Worth Center
Fri 03:30:49 PM 34.3583 -96.5556 61° Northeast 402 463 41,000  Level Fort Worth Center
Fri 03:31:49 PM 34.4136 -96.4342 61° Northeast 402 463 41,000  Level Fort Worth Center
Fri 03:32:49 PM 34.4711 -96.3103 61° Northeast 402 463 41,000  Level Fort Worth Center
Fri 03:33:49 PM 34.5283 -96.1858 61° Northeast 408 470 41,000  Level Fort Worth Center
Fri 03:34:48 PM 34.5833 -96.0642 61° Northeast 408 470 41,000  Level Fort Worth Center
Fri 03:35:49 PM 34.6383 -95.9447 61° Northeast 413 475 41,000  Level Fort Worth Center
Fri 03:36:48 PM 34.6933 -95.8200 62° Northeast 413 475 41,000  Level Fort Worth Center
Fri 03:39:17 PM 34.8386 -95.5058 61° Northeast 418 481 41,000  Level Memphis Center
Fri 03:40:17 PM 34.8956 -95.3828 61° Northeast 412 474 41,000  Level Memphis Center
Fri 03:41:17 PM 34.9486 -95.2592 62° Northeast 406 467 41,000  Level Memphis Center
Fri 03:42:17 PM 35.0056 -95.1333 61° Northeast 406 467 41,000  Level Memphis Center
Fri 03:43:17 PM 35.0606 -95.0069 62° Northeast 406 467 41,000  Level Memphis Center
Fri 03:44:17 PM 35.1172 -94.8833 61° Northeast 406 467 41,000  Level Memphis Center
Fri 03:45:17 PM 35.1719 -94.7542 63° Northeast 411 473 41,000  Level Memphis Center
Fri 03:46:17 PM 35.2197 -94.6397 63° Northeast 411 473 41,000  Level Memphis Center
Fri 03:47:17 PM 35.2719 -94.5153 63° Northeast 411 473 41,000  Level Memphis Center
Fri 03:48:17 PM 35.3303 -94.3883 61° Northeast 416 479 41,000  Level Memphis Center
Fri 03:49:17 PM 35.3844 -94.2611 62° Northeast 421 484 41,000  Level Memphis Center
Fri 03:50:17 PM 35.4425 -94.1339 61° Northeast 421 484 41,000  Level Memphis Center
Fri 03:51:17 PM 35.4942 -94.0086 63° Northeast 421 484 41,000  Level Memphis Center
Fri 03:52:17 PM 35.5481 -93.8808 63° Northeast 421 484 41,000  Level Memphis Center
Fri 03:53:17 PM 35.6081 -93.7456 61° Northeast 416 479 41,000  Level Memphis Center
Fri 03:54:17 PM 35.6614 -93.6175 63° Northeast 416 479 41,000  Level Memphis Center
Fri 03:55:17 PM 35.7147 -93.4917 62° Northeast 416 479 41,000  Level Memphis Center
Fri 03:56:17 PM 35.7681 -93.3658 62° Northeast 416 479 41,000  Level Memphis Center
Fri 03:57:17 PM 35.8231 -93.2372 62° Northeast 416 479 41,000  Level Memphis Center
Fri 03:58:17 PM 35.8761 -93.1111 63° Northeast 422 486 41,000  Level Memphis Center
Fri 03:59:17 PM 35.9289 -92.9794 64° Northeast 422 486 41,000  Level Memphis Center
Fri 04:00:17 PM 35.9817 -92.8503 63° Northeast 422 486 41,000  Level Memphis Center
Fri 04:01:17 PM 36.0342 -92.7236 63° Northeast 422 486 41,000  Level Memphis Center
Fri 04:02:17 PM 36.0864 -92.5942 63° Northeast 422 486 41,000  Level Memphis Center
Fri 04:03:17 PM 36.1408 -92.4669 62° Northeast 422 486 41,000  Level Memphis Center
Fri 04:04:17 PM 36.1950 -92.3372 63° Northeast 422 486 41,000  Level Memphis Center
Fri 04:05:17 PM 36.2472 -92.2072 63° Northeast 416 479 41,000  Level Memphis Center
Fri 04:06:17 PM 36.2989 -92.0772 64° Northeast 416 479 41,000  Level Memphis Center
Fri 04:07:17 PM 36.3508 -91.9519 63° Northeast 416 479 41,000  Level Memphis Center
Fri 04:08:17 PM 36.4022 -91.8214 64° Northeast 416 479 41,000  Level Memphis Center
Fri 04:09:17 PM 36.4433 -91.7061 66° East 416 479 41,000  Level Memphis Center
Fri 04:10:17 PM 36.5053 -91.5625 62° Northeast 416 479 41,000  Level Memphis Center
Fri 04:11:17 PM 36.5564 -91.4289 65° Northeast 421 484 41,000  Level Memphis Center
Fri 04:12:17 PM 36.6094 -91.2978 63° Northeast 421 484 41,000  Level Memphis Center
Fri 04:13:17 PM 36.6625 -91.1639 64° Northeast 421 484 41,000  Level Memphis Center
Fri 04:14:17 PM 36.7111 -91.0428 63° Northeast 421 484 41,000  Level Memphis Center
Fri 04:15:17 PM 36.7639 -90.9086 64° Northeast 421 484 41,000  Level Memphis Center
Fri 04:16:17 PM 36.8186 -90.7717 63° Northeast 421 484 41,000  Level Memphis Center
Fri 04:17:23 PM 36.8772 -90.6133 65° Northeast 425 489 41,000  Level Kansas City Center
Fri 04:18:25 PM 36.9278 -90.4803 65° Northeast 424 488 41,000  Level Kansas City Center
Fri 04:19:27 PM 36.9794 -90.3472 64° Northeast 425 489 41,000  Level Kansas City Center
Fri 04:20:29 PM 37.0294 -90.2153 65° Northeast 422 486 41,000  Level Kansas City Center
Fri 04:21:17 PM 37.0714 -90.1178 62° Northeast 421 484 41,000  Level Memphis Center
Fri 04:22:17 PM 37.1231 -89.9822 64° Northeast 416 479 41,000  Level Memphis Center
Fri 04:23:17 PM 37.1725 -89.8519 64° Northeast 416 479 41,000  Level Memphis Center
Fri 04:24:17 PM 37.2197 -89.7214 66° East 416 479 41,000  Level Memphis Center
Fri 04:25:17 PM 37.2711 -89.5881 64° Northeast 416 479 41,000  Level Memphis Center
Fri 04:26:17 PM 37.3244 -89.4414 65° Northeast 416 479 41,000  Level Memphis Center
Fri 04:27:17 PM 37.3733 -89.3103 65° Northeast 421 484 41,000  Level Memphis Center
Fri 04:28:17 PM 37.4222 -89.1767 65° Northeast 421 484 41,000  Level Memphis Center
Fri 04:29:17 PM 37.4708 -89.0425 65° Northeast 421 484 41,000  Level Memphis Center
Fri 04:29:47 PM 37.4864 -88.9956 67° East 415 478 41,000  Level Kansas City Center
Fri 04:30:49 PM 37.5436 -88.8347 66° East 417 480 41,000  Level Kansas City Center
Fri 04:32:22 PM 37.6111 -88.6511 65° Northeast 419 482 41,000  Level Indianapolis Center
Fri 04:33:24 PM 37.6592 -88.5183 65° Northeast 417 480 41,000  Level Indianapolis Center
Fri 04:34:26 PM 37.7172 -88.3575 65° Northeast 419 482 41,000  Level Indianapolis Center
Fri 04:35:28 PM 37.7653 -88.2242 65° Northeast 416 479 41,000  Level Indianapolis Center
Fri 04:36:30 PM 37.8125 -88.0903 66° East 416 479 41,000  Level Indianapolis Center
Fri 04:37:32 PM 37.8594 -87.9556 66° East 417 480 41,000  Level Indianapolis Center
Fri 04:38:34 PM 37.9075 -87.8225 65° Northeast 415 478 41,000  Level Indianapolis Center
Fri 04:39:36 PM 37.9678 -87.6981 58° Northeast 414 476 41,000  Level Indianapolis Center
Fri 04:40:38 PM 38.0403 -87.5869 50° Northeast 408 470 41,000  Level Indianapolis Center
Fri 04:41:40 PM 38.1269 -87.4517 51° Northeast 408 470 41,000  Level Indianapolis Center
Fri 04:42:42 PM 38.1986 -87.3389 51° Northeast 409 471 41,000  Level Indianapolis Center
Fri 04:43:44 PM 38.2717 -87.2228 51° Northeast 407 468 41,000  Level Indianapolis Center
Fri 04:44:46 PM 38.3428 -87.1083 52° Northeast 412 474 41,000  Level Indianapolis Center
Fri 04:45:49 PM 38.4136 -86.9964 51° Northeast 409 471 41,000  Level Indianapolis Center
Fri 04:46:51 PM 38.4908 -86.8736 51° Northeast 410 472 41,000  Level Indianapolis Center
Fri 04:47:53 PM 38.5614 -86.7594 52° Northeast 407 468 41,000  Level Indianapolis Center
Fri 04:48:55 PM 38.6319 -86.6458 51° Northeast 406 467 41,000  Level Indianapolis Center
Fri 04:49:57 PM 38.7036 -86.5314 51° Northeast 410 472 41,000  Level Indianapolis Center
Fri 04:50:59 PM 38.7750 -86.4164 51° Northeast 411 473 41,000  Level Indianapolis Center
Fri 04:52:01 PM 38.8597 -86.2778 52° Northeast 411 473 41,000  Level Indianapolis Center
Fri 04:53:03 PM 38.9189 -86.1783 53° Northeast 411 473 41,000  Level Indianapolis Center
Fri 04:54:05 PM 39.0028 -86.0431 51° Northeast 409 471 41,000  Level Indianapolis Center
Fri 04:55:07 PM 39.0717 -85.9297 52° Northeast 407 468 41,000  Level Indianapolis Center
Fri 04:56:09 PM 39.1397 -85.8169 52° Northeast 403 464 41,000  Level Indianapolis Center
Fri 04:57:11 PM 39.2072 -85.7036 52° Northeast 403 464 41,000  Level Indianapolis Center
Fri 04:58:13 PM 39.2747 -85.5903 52° Northeast 403 464 41,000  Level Indianapolis Center
Fri 04:59:15 PM 39.3581 -85.4561 51° Northeast 402 463 41,000  Level Indianapolis Center
Fri 05:00:17 PM 39.4306 -85.3492 49° Northeast 400 460 41,000  Level Indianapolis Center
Fri 05:01:19 PM 39.5028 -85.2403 49° Northeast 401 461 41,000  Level Indianapolis Center
Fri 05:02:21 PM 39.5753 -85.1328 49° Northeast 399 459 41,000  Level Indianapolis Center
Fri 05:03:23 PM 39.6461 -85.0256 49° Northeast 394 453 41,000  Level Indianapolis Center
Fri 05:04:25 PM 39.7308 -84.8983 49° Northeast 391 450 41,000  Level Indianapolis Center
Fri 05:05:28 PM 39.7992 -84.7942 49° Northeast 386 444 41,000  Level Indianapolis Center
Fri 05:06:30 PM 39.8689 -84.6886 49° Northeast 385 443 41,000  Level Indianapolis Center
Fri 05:07:32 PM 39.9381 -84.5847 49° Northeast 381 438 41,000  Level Indianapolis Center
Fri 05:08:34 PM 40.0067 -84.4794 50° Northeast 380 437 41,000  Level Indianapolis Center
Fri 05:09:36 PM 40.0883 -84.3539 50° Northeast 379 436 41,000  Level Indianapolis Center
Fri 05:10:38 PM 40.1558 -84.2472 50° Northeast 379 436 41,000  Level Indianapolis Center
Fri 05:11:40 PM 40.2236 -84.1431 50° Northeast 375 432 41,000  Level Indianapolis Center
Fri 05:12:42 PM 40.2908 -84.0375 50° Northeast 374 430 41,000  Level Indianapolis Center
Fri 05:13:44 PM 40.3556 -83.9281 52° Northeast 377 434 41,000  Level Indianapolis Center
Fri 05:14:46 PM 40.4197 -83.8189 52° Northeast 377 434 41,000  Level Indianapolis Center
Fri 05:15:48 PM 40.4831 -83.7089 53° Northeast 376 433 41,000  Level Indianapolis Center
Fri 05:16:50 PM 40.5603 -83.5761 53° Northeast 379 436 41,000  Level Indianapolis Center
Fri 05:17:52 PM 40.6228 -83.4656 53° Northeast 378 435 41,000  Level Indianapolis Center
Fri 05:18:54 PM 40.6825 -83.3503 56° Northeast 381 438 41,000  Level Indianapolis Center
Fri 05:19:56 PM 40.7250 -83.2122 68° East 402 463 41,000  Level Indianapolis Center
Fri 05:20:58 PM 40.7667 -83.0789 68° East 403 464 41,000  Level Indianapolis Center
Fri 05:22:00 PM 40.8150 -82.9197 68° East 399 459 41,000  Level Indianapolis Center
Fri 05:23:02 PM 40.8586 -82.7819 67° East 404 465 41,000  Level Indianapolis Center
Fri 05:23:49 PM 40.8856 -82.6925 68° East 390 449 41,000  Level Cleveland Center
Fri 05:24:49 PM 40.9278 -82.5536 68° East 395 455 41,000  Level Cleveland Center
Fri 05:25:49 PM 40.9694 -82.4200 68° East 395 455 41,000  Level Cleveland Center
Fri 05:26:49 PM 41.0114 -82.2808 68° East 397 457 41,000  Level Cleveland Center
Fri 05:27:49 PM 41.0508 -82.1442 69° East 397 457 41,000  Level Cleveland Center
Fri 05:28:49 PM 41.0922 -82.0075 68° East 397 457 41,000  Level Cleveland Center
Fri 05:29:49 PM 41.1442 -81.8514 66° East 397 457 41,000  Level Cleveland Center
Fri 05:30:49 PM 41.1831 -81.7142 69° East 402 463 41,000  Level Cleveland Center
Fri 05:31:49 PM 41.2219 -81.5714 70° East 407 468 41,000  Level Cleveland Center
Fri 05:32:49 PM 41.2628 -81.4339 68° East 407 468 41,000  Level Cleveland Center
Fri 05:33:49 PM 41.2969 -81.3072 70° East 407 468 41,000  Level Cleveland Center
Fri 05:34:48 PM 41.3394 -81.1694 68° East 407 468 41,000  Level Cleveland Center
Fri 05:35:49 PM 41.3817 -81.0147 70° East 407 468 41,000  Level Cleveland Center
Fri 05:36:49 PM 41.4217 -80.8711 70° East 407 468 41,000  Level Cleveland Center
Fri 05:37:49 PM 41.4617 -80.7356 68° East 402 463 41,000  Level Cleveland Center
Fri 05:38:49 PM 41.5033 -80.5886 69° East 407 468 41,000  Level Cleveland Center
Fri 05:39:49 PM 41.5431 -80.4500 69° East 407 468 41,000  Level Cleveland Center
Fri 05:40:49 PM 41.5783 -80.3222 70° East 407 468 41,000  Level Cleveland Center
Fri 05:41:49 PM 41.6175 -80.1803 70° East 407 468 41,000  Level Cleveland Center
Fri 05:42:49 PM 41.6564 -80.0383 70° East 407 468 41,000  Level Cleveland Center
Fri 05:43:49 PM 41.6994 -79.8822 70° East 407 468 41,000  Level Cleveland Center
Fri 05:44:49 PM 41.7400 -79.7400 69° East 412 474 41,000  Level Cleveland Center
Fri 05:45:49 PM 41.7744 -79.6114 70° East 412 474 41,000  Level Cleveland Center
Fri 05:46:49 PM 41.8169 -79.4658 69° East 412 474 41,000  Level Cleveland Center
Fri 05:47:49 PM 41.8550 -79.3175 71° East 412 474 41,000  Level Cleveland Center
Fri 05:48:49 PM 41.9011 -79.1547 69° East 412 474 41,000  Level Cleveland Center
Fri 05:49:49 PM 41.9328 -79.0172 73° East 412 474 41,000  Level Cleveland Center
Fri 05:50:49 PM 41.9722 -78.8711 70° East 412 474 41,000  Level Cleveland Center
Fri 05:51:49 PM 42.0117 -78.7192 71° East 417 480 41,000  Level Cleveland Center
Fri 05:52:49 PM 42.0528 -78.5697 70° East 417 480 41,000  Level Cleveland Center
Fri 05:53:49 PM 42.0919 -78.4203 71° East 417 480 41,000  Level Cleveland Center
Fri 05:54:49 PM 42.1283 -78.2650 72° East 423 487 41,000  Level Cleveland Center
Fri 05:55:49 PM 42.1731 -78.1008 70° East 423 487 41,000  Level Cleveland Center
Fri 05:56:49 PM 42.2111 -77.9481 71° East 423 487 41,000  Level Cleveland Center
Fri 05:57:49 PM 42.2514 -77.7919 71° East 428 493 41,000  Level Cleveland Center
Fri 05:58:49 PM 42.2892 -77.6414 71° East 428 493 41,000  Level Cleveland Center
Fri 05:59:49 PM 42.3231 -77.5022 72° East 428 493 41,000  Level Cleveland Center
Fri 06:00:49 PM 42.3608 -77.3514 71° East 428 493 41,000  Level Cleveland Center
Fri 06:02:52 PM 42.4364 -77.0433 72° East 430 495 41,000  Level Boston Center
Fri 06:03:52 PM 42.4553 -76.8814 81° East 430 495 41,000  Level Boston Center
Fri 06:04:53 PM 42.4739 -76.7250 81° East 425 489 41,000  Level Boston Center
Fri 06:05:53 PM 42.4900 -76.5656 82° East 425 489 41,000  Level Boston Center
Fri 06:06:51 PM 42.5064 -76.4033 82° East 425 489 41,000  Level Boston Center
Fri 06:07:51 PM 42.5097 -76.2400 88° East 425 489 41,000 -744 Level Boston Center
Fri 06:08:52 PM 42.5075 -76.0594 91° East 431 496 39,500 -1,488 Descending Boston Center
Fri 06:09:52 PM 42.5064 -75.8903 90° East 441 507 38,000 -1,488 Descending Boston Center
Fri 06:10:53 PM 42.5011 -75.7211 92° East 446 513 36,500 -1,513 Descending Boston Center
Fri 06:11:51 PM 42.4994 -75.5547 91° East 441 507 35,000 -2,136 Descending Boston Center
Fri 06:12:51 PM 42.4956 -75.3828 92° East 441 507 32,300 -3,074 Descending Boston Center
Fri 06:13:52 PM 42.4917 -75.2108 92° East 447 514 28,800 -3,223 Descending Boston Center
Fri 06:14:52 PM 42.4872 -75.0417 92° East 452 520 25,800 -2,975 Descending Boston Center
Fri 06:15:53 PM 42.4828 -74.8725 92° East 452 520 22,800 -2,529 Descending Boston Center
Fri 06:16:53 PM 42.4797 -74.7092 91° East 446 513 20,700 -1,800 Descending Boston Center
Fri 06:17:53 PM 42.4808 -74.5486 89° East 436 502 19,200 -864 Descending Boston Center
Fri 06:18:51 PM 42.4839 -74.3856 88° East 436 502 19,000 -403 Descending Boston Center
Fri 06:19:52 PM 42.4842 -74.2306 90° East 420 483 18,400 -1,082 Descending Boston Center
Fri 06:20:53 PM 42.4697 -74.0811 97° East 402 463 16,800 -1,462 Descending Boston Center
Fri 06:21:51 PM 42.4467 -73.9539 104° East 389 448 15,500 -1,210 Descending Boston Center
Fri 06:22:52 PM 42.4153 -73.8011 106° East 384 442 14,400 -992 Descending Boston Center
Fri 06:23:52 PM 42.3894 -73.6797 106° East 377 434 13,500 -1,041 Descending Boston Center
Fri 06:24:53 PM 42.3597 -73.5358 106° East 363 418 12,300 -1,138 Descending Boston Center
Fri 06:25:48 PM 42.3358 -73.4175 105° East 368 423 11,300 -931 Descending Boston Center
Fri 06:25:51 PM 42.3358 -73.4175 105° East 363 418 11,400 -273 Climbing Boston Center
Fri 06:26:54 PM 42.3183 -73.2628 99° East 367 422 11,000 -610 Descending Boston Center
Fri 06:27:49 PM 42.3169 -73.1364 91° East 362 417 10,200 -724 Descending Boston Center
Fri 06:27:52 PM 42.3189 -73.1447 288° West 368 423 10,300 -1,770 Climbing Boston Center
Fri 06:28:50 PM 42.3114 -73.0183 95° East 299 344 8,400 -1,869 Descending Boston Center
Fri 06:28:53 PM 42.3114 -73.0128 90° East 339 390 8,400 -1,524 Level Boston Center
Fri 06:29:53 PM 42.3097 -72.9144 91° East 307 353 6,800 -1,650 Descending Boston Center
Fri 06:30:53 PM 42.3039 -72.7994 94° East 290 334 5,100 -915 Descending Boston Center
Fri 06:31:51 PM 42.3000 -72.7067 93° East 276 318 5,000 -98 Descending Boston Center
Fri 06:31:54 PM 42.3000 -72.7039 90° East 272 313 5,000 -393 Level Boston Center
Fri 06:32:52 PM 42.2961 -72.6086 93° East 265 305 4,600 -590 Descending Boston Center
Fri 06:32:55 PM 42.2961 -72.5944 90° East 267 307 4,400 -1,500 Descending Boston Center
Fri 06:33:52 PM 42.2919 -72.5019 93° East 259 298 3,100 -1,279 Descending Boston Center
Fri 06:33:56 PM 42.2900 -72.4989 131° Southeast 251 289 3,100 -98 Level Boston Center
Fri 06:34:53 PM 42.2900 -72.4147 90° East 253 291 3,000 -100 Descending Boston Center
Fri 06:34:56 PM 42.2858 -72.4036 117° Southeast 259 298 3,000  Level Boston Center
Fri 06:35:53 PM 42.2858 -72.3053 90° East 253 291 3,000  Level Boston Center
Fri 06:35:56 PM 42.2817 -72.3056 183° South 263 303 3,000  Level Boston Center
Fri 06:36:54 PM 42.2814 -72.2211 90° East 253 291 3,000  Level Boston Center
Fri 06:37:03 PM 42.2792 -72.1903 96° East 264 304 3,000  Level Boston Center
Fri 06:37:51 PM 42.2750 -72.1089 94° East 258 297 3,000  Level Boston Center
Fri 06:38:06 PM 42.2747 -72.0894 91° East 268 308 3,000 -98 Level Boston Center
Fri 06:38:52 PM 42.2683 -72.0219 97° East 258 297 2,900 -295 Descending Boston Center
Fri 06:39:07 PM 42.2578 -71.9969 120° Southeast 236 272 2,700 -348 Descending Boston Center
Fri 06:40:01 PM 42.2367 -71.9269 112° Southeast 222 255 2,500 -53 Descending Boston Center
Fri 06:41:01 PM 42.2197 -71.8542 107° East 210 242 2,600 -298 Climbing Boston Center
Fri 06:42:02 PM 42.2444 -71.8258 40° Northeast 108 124 1,900 -672 Descending Boston Center
Fri 06:42:57 PM 42.2656 -71.8508 319° Northwest 99 114 1,300 -443 Descending Boston Center
Fri 06:44:04 PM 42.2636 -71.8931 266° West 102 117 1,000 -269 Descending Boston Center

Login

Don't have an account? Register now (free) for customized features, flight alerts, and more!